ΕΜΥ, Εθνική Μετεωρολογική Υπηρεσία - Δελτία Καιρού, Προγνώσεις

ΑΕΡΟΝΑΥΤΙΛΙΑ

GREEK AIRPORTS CODES

LGST 191200Z AUTO 28015KT //// // ////// 27/11 Q1013 RE//=

EUROPEAN AIRPORTS CODES

LFPO 191200Z 23010KT 190V270 9999 SCT045 BKN230 27/13 Q1015NOSIG=